KAVXKSAN

Guest
Details From KAVX - Catalina
To KSAN - San Diego Intl
Flight Number -
Tags generated
Created
Modified
Stats Distance 74 nm / 137 km
Max Altitude 3,300 ft / 1,006 m
Waypoints 3
Social Downloads 1
Likes 0
Share

Download

Looking for another format? Having issues loading an existing format? Contact us
Advertisement - Login to hide

Notes

Basic altitude profile: - Ascent Rate: 2500ft/min - Ascent Speed: 250kts - Cruise Altitude: 35000ft - Cruise Speed: 420kts - Descent Rate: 1500ft/min - Descent Speed: 250kts Options: - Use NATs: yes - Use PACOTS: yes - Use low airways: yes - Use high airways: yes

Route

KAVX AVOLS KSAN

ID Type Via Altitude (ft/m) Position (lat/lon) Dist (leg/tot) Name
O KAVX APT - 0 / 0 33.40466 / -118.41588 - / 0 nm Catalina
AVOLS FIX - 3,300 / 1,006 33.35179 / -118.24184 9 / 9 nm
O KSAN APT - 0 / 0 32.73356 / -117.18966 64 / 73 nm San Diego Intl

Altitude Profile

Advertisement - Login to hide

KAVX

Details ICAO KAVX (AVX)
Name Catalina
Region United States
Timezone America/Los_Angeles (UTC-7.0)
Stats Elevation 1,602 ft / 488 m (AMSL)
Location 33.405000° -118.416000°
Runways 1
Magnetic Variation 11.608° E

METAR

KAVX 090151Z AUTO 00000KT 10SM CLR 15/11 A2994 RMK AO2 SLP132 T01500106 $

Decode

TAF

Not found

Departure Runways

ID Width Length Bearing (true/mag) Surface Threshold Overrun Markings Lighting
04 63 ft / 19 m 2,975 ft / 907 m 54.67° / 43.06° ASPHALT 0 ft / 0 m 59 ft / 18 m VISUAL EDGE THRESHOLD
22 63 ft / 19 m 2,975 ft / 907 m 234.68° / 223.07° ASPHALT 0 ft / 0 m 62 ft / 19 m VISUAL EDGE THRESHOLD REIL-OMNI

KSAN

Details ICAO KSAN (SAN)
Name San Diego Intl
Region United States
Timezone America/Los_Angeles (UTC-7.0)
Stats Elevation 17 ft / 5 m (AMSL)
Location 32.733600° -117.190000°
Runways 1
Magnetic Variation 11.232° E

METAR

KSAN 090151Z 21006KT 10SM FEW030 18/11 A2994 RMK AO2 SLP138 T01780111

Decode

TAF

KSAN 082328Z 0900/1006 23010KT P6SM FEW025 FM090200 19005KT P6SM BKN020 FM091000 19005KT P6SM OVC017 FM091800 20010KT P6SM SCT020 FM100100 22006KT P6SM BKN020

Decode

Destination Runways

ID Width Length Bearing (true/mag) Surface Threshold Overrun Markings Lighting
09 200 ft / 61 m 9,388 ft / 2,861 m 106.13° / 94.90° ASPHALT 1,004 ft / 306 m 390 ft / 119 m PREC-APP CENTERLINE EDGE THRESHOLD MALSR TDZ REIL-OMNI
27 200 ft / 61 m 9,388 ft / 2,861 m 286.15° / 274.92° ASPHALT 1,811 ft / 552 m 0 ft / 0 m PREC-APP CENTERLINE EDGE THRESHOLD MALS TDZ REIL-OMNI

Approach Navaids

Runway Type Ident Frequency Range Bearing (true/mag) Slope Elevation
09 LOC-ILS ISAN 111.55 MHz 18 nm / 33 km 106.14° / 94.91 ° - 17 ft / 5 m (AMSL)
09 MM MM - - 106.08° / 94.84 ° - 15 ft / 5 m (AMSL)
09 GS ISAN 111.55 MHz 10 nm / 19 km 106.14° / 94.91 ° 3.10° 17 ft / 5 m (AMSL)
09 DME ISAN 111.55 MHz 18 nm / 33 km - - 29 ft / 9 m (AMSL)
27 LOC-LOC IUBR 110.90 MHz 18 nm / 33 km 286.14° / 274.91 ° - 17 ft / 5 m (AMSL)
27 DME IUBR 110.90 MHz 18 nm / 33 km - - 26 ft / 8 m (AMSL)

Popular Alternatives